sensor_id;sensor_type;location;lat;lon;timestamp;temperature;humidity
14775;DHT22;7479;47.042;15.160;2022-09-23T06:06:36;4.30;99.90
14775;DHT22;7479;47.042;15.160;2022-09-23T06:25:25;5.10;99.90
14775;DHT22;7479;47.042;15.160;2022-09-23T06:42:58;5.90;99.90
14775;DHT22;7479;47.042;15.160;2022-09-23T07:00:22;6.60;99.90
14775;DHT22;7479;47.042;15.160;2022-09-23T07:18:34;7.40;99.90
14775;DHT22;7479;47.042;15.160;2022-09-23T07:37:58;8.30;99.90
14775;DHT22;7479;47.042;15.160;2022-09-23T07:58:04;9.20;99.90
14775;DHT22;7479;47.042;15.160;2022-09-23T08:17:21;10.30;99.90
14775;DHT22;7479;47.042;15.160;2022-09-23T08:35:30;11.50;99.90
14775;DHT22;7479;47.042;15.160;2022-09-23T08:40:23;11.80;99.90
14775;DHT22;7479;47.042;15.160;2022-09-23T08:59:22;12.80;99.90
14775;DHT22;7479;47.042;15.160;2022-09-23T09:04:23;13.00;99.90
14775;DHT22;7479;47.042;15.160;2022-09-23T09:09:24;13.40;99.90
14775;DHT22;7479;47.042;15.160;2022-09-23T09:14:27;13.60;99.90
14775;DHT22;7479;47.042;15.160;2022-09-23T09:19:43;13.90;99.90
14775;DHT22;7479;47.042;15.160;2022-09-23T09:24:39;14.30;99.90
14775;DHT22;7479;47.042;15.160;2022-09-23T09:29:39;14.50;99.90
14775;DHT22;7479;47.042;15.160;2022-09-23T09:34:39;14.70;99.90
14775;DHT22;7479;47.042;15.160;2022-09-23T09:39:35;14.70;99.90
14775;DHT22;7479;47.042;15.160;2022-09-23T09:44:33;14.80;99.90
14775;DHT22;7479;47.042;15.160;2022-09-23T09:49:35;15.20;99.70
14775;DHT22;7479;47.042;15.160;2022-09-23T09:54:33;15.50;98.30
14775;DHT22;7479;47.042;15.160;2022-09-23T09:59:27;15.70;98.30
14775;DHT22;7479;47.042;15.160;2022-09-23T10:04:28;16.20;97.30
14775;DHT22;7479;47.042;15.160;2022-09-23T10:09:31;16.30;96.40
14775;DHT22;7479;47.042;15.160;2022-09-23T10:14:25;16.60;96.10
14775;DHT22;7479;47.042;15.160;2022-09-23T10:19:24;17.10;95.70
14775;DHT22;7479;47.042;15.160;2022-09-23T10:24:22;17.30;94.60
14775;DHT22;7479;47.042;15.160;2022-09-23T10:29:23;17.30;94.40
14775;DHT22;7479;47.042;15.160;2022-09-23T10:34:24;17.80;93.50
14775;DHT22;7479;47.042;15.160;2022-09-23T10:39:18;18.30;92.60
14775;DHT22;7479;47.042;15.160;2022-09-23T10:44:35;18.60;90.90
14775;DHT22;7479;47.042;15.160;2022-09-23T10:50:18;18.90;88.60
14775;DHT22;7479;47.042;15.160;2022-09-23T10:55:25;19.30;88.70
14775;DHT22;7479;47.042;15.160;2022-09-23T11:00:27;19.50;85.60
14775;DHT22;7479;47.042;15.160;2022-09-23T11:05:37;19.60;83.90
14775;DHT22;7479;47.042;15.160;2022-09-23T11:10:53;19.70;81.30
14775;DHT22;7479;47.042;15.160;2022-09-23T11:15:59;20.20;78.90
14775;DHT22;7479;47.042;15.160;2022-09-23T11:21:04;20.40;76.70
14775;DHT22;7479;47.042;15.160;2022-09-23T11:26:09;20.60;75.20
14775;DHT22;7479;47.042;15.160;2022-09-23T11:31:16;20.60;73.10
14775;DHT22;7479;47.042;15.160;2022-09-23T11:36:22;20.70;71.70
14775;DHT22;7479;47.042;15.160;2022-09-23T11:41:20;20.80;70.10
14775;DHT22;7479;47.042;15.160;2022-09-23T11:46:26;21.20;69.70
14775;DHT22;7479;47.042;15.160;2022-09-23T11:51:25;21.50;66.90
14775;DHT22;7479;47.042;15.160;2022-09-23T11:56:25;21.30;66.80
14775;DHT22;7479;47.042;15.160;2022-09-23T12:01:29;21.40;67.80
14775;DHT22;7479;47.042;15.160;2022-09-23T12:06:33;21.70;65.80
14775;DHT22;7479;47.042;15.160;2022-09-23T12:11:34;22.10;65.50
14775;DHT22;7479;47.042;15.160;2022-09-23T12:16:57;22.00;65.40
14775;DHT22;7479;47.042;15.160;2022-09-23T12:22:03;22.30;65.30
14775;DHT22;7479;47.042;15.160;2022-09-23T12:27:03;22.40;66.50
14775;DHT22;7479;47.042;15.160;2022-09-23T12:32:01;22.40;66.80
14775;DHT22;7479;47.042;15.160;2022-09-23T12:37:01;22.70;64.40
14775;DHT22;7479;47.042;15.160;2022-09-23T12:41:57;22.80;62.40
14775;DHT22;7479;47.042;15.160;2022-09-23T12:52:25;23.00;60.80
14775;DHT22;7479;47.042;15.160;2022-09-23T12:57:38;23.10;60.10
14775;DHT22;7479;47.042;15.160;2022-09-23T13:02:34;23.30;60.80
14775;DHT22;7479;47.042;15.160;2022-09-23T13:07:31;23.10;61.40
14775;DHT22;7479;47.042;15.160;2022-09-23T13:12:29;23.20;62.30
14775;DHT22;7479;47.042;15.160;2022-09-23T13:17:28;23.80;59.80
14775;DHT22;7479;47.042;15.160;2022-09-23T13:22:58;23.80;58.60
14775;DHT22;7479;47.042;15.160;2022-09-23T13:27:57;24.00;58.60
14775;DHT22;7479;47.042;15.160;2022-09-23T13:33:01;24.00;58.70
14775;DHT22;7479;47.042;15.160;2022-09-23T13:37:56;24.20;58.50
14775;DHT22;7479;47.042;15.160;2022-09-23T13:42:54;24.50;57.20
14775;DHT22;7479;47.042;15.160;2022-09-23T13:47:51;24.40;57.90
14775;DHT22;7479;47.042;15.160;2022-09-23T13:52:50;24.60;55.70
14775;DHT22;7479;47.042;15.160;2022-09-23T13:57:45;25.60;55.50
14775;DHT22;7479;47.042;15.160;2022-09-23T14:02:41;26.50;54.10
14775;DHT22;7479;47.042;15.160;2022-09-23T14:07:35;27.60;51.80
14775;DHT22;7479;47.042;15.160;2022-09-23T14:12:29;28.60;49.60
14775;DHT22;7479;47.042;15.160;2022-09-23T14:17:24;28.70;49.30
14775;DHT22;7479;47.042;15.160;2022-09-23T14:22:22;30.20;47.40
14775;DHT22;7479;47.042;15.160;2022-09-23T14:27:19;30.50;46.00
14775;DHT22;7479;47.042;15.160;2022-09-23T14:32:19;31.20;44.50
14775;DHT22;7479;47.042;15.160;2022-09-23T14:37:30;31.20;44.50
14775;DHT22;7479;47.042;15.160;2022-09-23T14:42:45;31.70;43.90
14775;DHT22;7479;47.042;15.160;2022-09-23T14:47:42;32.10;43.70
14775;DHT22;7479;47.042;15.160;2022-09-23T14:52:47;32.00;42.50
14775;DHT22;7479;47.042;15.160;2022-09-23T14:57:41;31.60;43.00
14775;DHT22;7479;47.042;15.160;2022-09-23T15:02:36;31.90;42.90
14775;DHT22;7479;47.042;15.160;2022-09-23T15:07:30;32.40;42.80
14775;DHT22;7479;47.042;15.160;2022-09-23T15:12:26;32.50;41.40
14775;DHT22;7479;47.042;15.160;2022-09-23T15:17:27;31.40;42.50
14775;DHT22;7479;47.042;15.160;2022-09-23T15:22:24;30.20;44.40
14775;DHT22;7479;47.042;15.160;2022-09-23T15:27:34;28.30;46.50
14775;DHT22;7479;47.042;15.160;2022-09-23T15:32:28;28.80;47.20
14775;DHT22;7479;47.042;15.160;2022-09-23T15:37:21;28.30;47.20
14775;DHT22;7479;47.042;15.160;2022-09-23T15:42:15;26.90;49.10
14775;DHT22;7479;47.042;15.160;2022-09-23T15:47:15;26.30;50.40
14775;DHT22;7479;47.042;15.160;2022-09-23T15:52:09;25.80;51.20
14775;DHT22;7479;47.042;15.160;2022-09-23T15:57:03;25.60;51.90
14775;DHT22;7479;47.042;15.160;2022-09-23T16:01:59;24.30;53.60
14775;DHT22;7479;47.042;15.160;2022-09-23T16:06:55;22.40;56.80
14775;DHT22;7479;47.042;15.160;2022-09-23T16:11:50;21.20;60.10
14775;DHT22;7479;47.042;15.160;2022-09-23T16:16:44;20.40;62.70
14775;DHT22;7479;47.042;15.160;2022-09-23T16:21:39;19.90;64.80
14775;DHT22;7479;47.042;15.160;2022-09-23T16:26:35;19.50;67.20
14775;DHT22;7479;47.042;15.160;2022-09-23T16:31:29;19.20;69.90
14775;DHT22;7479;47.042;15.160;2022-09-23T16:36:26;18.40;74.30
14775;DHT22;7479;47.042;15.160;2022-09-23T16:41:22;17.60;77.10
14775;DHT22;7479;47.042;15.160;2022-09-23T16:46:18;17.20;80.40
14775;DHT22;7479;47.042;15.160;2022-09-23T16:51:14;16.90;81.90
14775;DHT22;7479;47.042;15.160;2022-09-23T16:56:09;16.70;83.60
14775;DHT22;7479;47.042;15.160;2022-09-23T17:01:05;16.50;85.40
14775;DHT22;7479;47.042;15.160;2022-09-23T17:06:18;16.30;86.70
14775;DHT22;7479;47.042;15.160;2022-09-23T17:11:15;16.00;88.50
14775;DHT22;7479;47.042;15.160;2022-09-23T17:16:09;15.70;90.40
14775;DHT22;7479;47.042;15.160;2022-09-23T17:21:06;15.40;91.30
14775;DHT22;7479;47.042;15.160;2022-09-23T17:26:02;15.20;91.80
14775;DHT22;7479;47.042;15.160;2022-09-23T17:30:57;15.10;92.60
14775;DHT22;7479;47.042;15.160;2022-09-23T17:35:51;14.90;93.30
14775;DHT22;7479;47.042;15.160;2022-09-23T17:40:49;14.70;94.00
14775;DHT22;7479;47.042;15.160;2022-09-23T17:45:45;14.50;94.90
14775;DHT22;7479;47.042;15.160;2022-09-23T17:50:39;14.40;95.50
14775;DHT22;7479;47.042;15.160;2022-09-23T17:55:33;14.20;96.20
14775;DHT22;7479;47.042;15.160;2022-09-23T18:00:28;14.10;96.90
14775;DHT22;7479;47.042;15.160;2022-09-23T18:05:23;14.00;97.60
14775;DHT22;7479;47.042;15.160;2022-09-23T18:10:17;13.80;98.90
14775;DHT22;7479;47.042;15.160;2022-09-23T18:15:11;13.60;99.80
14775;DHT22;7479;47.042;15.160;2022-09-23T18:20:10;13.40;99.90
14775;DHT22;7479;47.042;15.160;2022-09-23T18:25:06;13.30;99.90
14775;DHT22;7479;47.042;15.160;2022-09-23T18:30:20;13.20;99.90
14775;DHT22;7479;47.042;15.160;2022-09-23T18:35:15;13.00;99.90
14775;DHT22;7479;47.042;15.160;2022-09-23T18:40:10;12.90;99.90
14775;DHT22;7479;47.042;15.160;2022-09-23T18:45:07;12.90;99.90
14775;DHT22;7479;47.042;15.160;2022-09-23T18:50:03;12.70;99.90
14775;DHT22;7479;47.042;15.160;2022-09-23T18:55:16;12.60;99.90
14775;DHT22;7479;47.042;15.160;2022-09-23T19:00:10;12.40;99.90
14775;DHT22;7479;47.042;15.160;2022-09-23T19:05:05;12.30;99.90
14775;DHT22;7479;47.042;15.160;2022-09-23T19:10:00;12.20;99.90
14775;DHT22;7479;47.042;15.160;2022-09-23T19:14:55;12.10;99.90
14775;DHT22;7479;47.042;15.160;2022-09-23T19:19:49;12.00;99.90
14775;DHT22;7479;47.042;15.160;2022-09-23T19:24:43;11.90;99.90
14775;DHT22;7479;47.042;15.160;2022-09-23T19:29:36;11.80;99.90
14775;DHT22;7479;47.042;15.160;2022-09-23T19:34:32;11.70;99.90
14775;DHT22;7479;47.042;15.160;2022-09-23T19:39:27;11.70;99.90
14775;DHT22;7479;47.042;15.160;2022-09-23T19:44:24;11.50;99.90
14775;DHT22;7479;47.042;15.160;2022-09-23T19:49:18;11.40;99.90
14775;DHT22;7479;47.042;15.160;2022-09-23T19:54:14;11.30;99.90
